createdAt,value
2019-04-30T00:04:55.297Z,60.33
2019-04-30T00:10:02.549Z,60.31
2019-04-30T00:15:11.098Z,60.67
2019-04-30T00:20:18.445Z,61.20
2019-04-30T00:25:28.588Z,61.06
2019-04-30T00:30:39.334Z,61.06
2019-04-30T00:35:45.392Z,61.56
2019-04-30T00:40:52.448Z,61.85
2019-04-30T00:45:59.452Z,62.11
2019-04-30T00:51:07.527Z,62.02
2019-04-30T00:56:19.996Z,62.11
2019-04-30T01:01:43.591Z,62.35
2019-04-30T01:06:47.825Z,62.47
2019-04-30T01:11:55.301Z,62.46
2019-04-30T01:17:03.916Z,62.59
2019-04-30T01:22:11.434Z,62.73
2019-04-30T01:27:20.275Z,63.02
2019-04-30T01:32:28.728Z,63.05
2019-04-30T01:37:39.292Z,63.05
2019-04-30T01:42:48.681Z,63.19
2019-04-30T01:48:00.624Z,63.40
2019-04-30T01:53:04.747Z,63.43
2019-04-30T01:58:33.349Z,63.47
2019-04-30T02:03:40.452Z,63.48
2019-04-30T02:08:49.277Z,63.48
2019-04-30T02:13:56.577Z,63.90
2019-04-30T02:19:04.580Z,64.00
2019-04-30T02:24:11.590Z,64.07
2019-04-30T02:29:19.109Z,64.24
2019-04-30T02:34:39.823Z,64.24
2019-04-30T02:39:46.114Z,64.31
2019-04-30T02:44:54.123Z,64.52
2019-04-30T02:50:15.227Z,64.77
2019-04-30T02:55:19.468Z,64.87
2019-04-30T03:00:32.527Z,64.92
2019-04-30T03:05:35.588Z,64.92
2019-04-30T03:10:42.568Z,65.38
2019-04-30T03:15:49.530Z,65.49
2019-04-30T03:21:21.265Z,65.49
2019-04-30T03:26:29.628Z,65.69
2019-04-30T03:31:35.731Z,65.53
2019-04-30T03:36:42.608Z,65.74
2019-04-30T03:41:50.134Z,66.00
2019-04-30T03:46:59.290Z,65.95
2019-04-30T03:52:06.484Z,65.95
2019-04-30T03:57:13.508Z,66.11
2019-04-30T04:02:40.480Z,66.27
2019-04-30T04:08:05.237Z,66.20
2019-04-30T04:13:13.061Z,66.24
2019-04-30T04:18:20.482Z,66.33
2019-04-30T04:23:32.863Z,66.51
2019-04-30T04:28:42.506Z,66.43
2019-04-30T04:33:45.918Z,66.29
2019-04-30T04:38:52.593Z,66.23
2019-04-30T04:44:00.239Z,66.28
2019-04-30T04:49:06.312Z,66.19
2019-04-30T04:54:13.458Z,66.05
2019-04-30T04:59:20.562Z,65.93
2019-04-30T05:04:29.816Z,65.74
2019-04-30T05:09:37.467Z,65.59
2019-04-30T05:14:44.446Z,65.32
2019-04-30T05:19:51.440Z,65.24
2019-04-30T05:24:58.985Z,65.03
2019-04-30T05:30:07.061Z,64.74
2019-04-30T05:35:14.565Z,64.56
2019-04-30T05:40:21.580Z,63.79
2019-04-30T05:45:30.595Z,63.79
2019-04-30T05:50:39.073Z,62.96
2019-04-30T05:55:46.431Z,62.96
2019-04-30T06:00:53.447Z,62.38
2019-04-30T06:06:00.503Z,62.11
2019-04-30T06:11:12.264Z,60.89
2019-04-30T06:16:23.269Z,60.89
2019-04-30T06:21:30.507Z,60.26
2019-04-30T06:26:39.352Z,60.31
2019-04-30T06:31:48.517Z,59.46
2019-04-30T06:36:57.123Z,58.67
2019-04-30T06:42:10.161Z,57.61
2019-04-30T06:47:14.613Z,57.20
2019-04-30T06:52:23.519Z,56.40
2019-04-30T06:57:30.439Z,56.40
2019-04-30T07:02:39.304Z,55.59
2019-04-30T07:08:09.285Z,54.37
2019-04-30T07:13:29.688Z,54.37
2019-04-30T07:18:38.660Z,52.57
2019-04-30T07:23:45.893Z,52.57
2019-04-30T07:28:55.353Z,51.95
2019-04-30T07:34:01.462Z,51.58
2019-04-30T07:39:10.081Z,51.27
2019-04-30T07:44:31.157Z,49.47
2019-04-30T07:49:45.944Z,49.47
2019-04-30T07:54:34.315Z,49.18
2019-04-30T07:59:41.431Z,48.87
2019-04-30T08:05:03.259Z,48.99
2019-04-30T08:10:10.041Z,48.93
2019-04-30T08:15:19.761Z,47.69
2019-04-30T08:20:29.702Z,46.42
2019-04-30T08:25:36.594Z,45.92
2019-04-30T08:30:45.635Z,44.23
2019-04-30T08:35:52.599Z,43.64
2019-04-30T08:41:00.855Z,42.88
2019-04-30T08:46:09.430Z,42.88
2019-04-30T08:51:19.253Z,42.27
2019-04-30T08:56:26.445Z,40.34
2019-04-30T09:01:33.590Z,38.61
2019-04-30T09:06:40.558Z,36.69
2019-04-30T09:11:53.062Z,36.69
2019-04-30T09:16:56.486Z,36.66
2019-04-30T09:22:03.480Z,36.04
2019-04-30T09:27:10.882Z,32.95
2019-04-30T09:32:19.284Z,32.44
2019-04-30T09:37:26.567Z,30.27
2019-04-30T09:42:33.555Z,30.68
2019-04-30T09:47:42.065Z,30.09
2019-04-30T09:52:49.959Z,30.09
2019-04-30T09:57:58.891Z,30.12
2019-04-30T10:03:07.521Z,28.84
2019-04-30T10:08:15.464Z,29.20
2019-04-30T10:13:22.478Z,29.26
2019-04-30T10:18:29.560Z,29.03
2019-04-30T10:23:36.476Z,27.06
2019-04-30T10:28:46.284Z,27.06
2019-04-30T10:33:52.658Z,27.14
2019-04-30T10:38:59.694Z,27.50
2019-04-30T10:44:08.904Z,27.43
2019-04-30T10:49:16.105Z,27.34
2019-04-30T10:54:26.359Z,26.22
2019-04-30T10:59:31.332Z,26.60
2019-04-30T11:04:37.302Z,26.72
2019-04-30T11:09:43.322Z,26.49
2019-04-30T11:14:51.587Z,26.52
2019-04-30T11:19:59.200Z,25.27
2019-04-30T11:25:07.416Z,25.27
2019-04-30T11:30:21.361Z,24.86
2019-04-30T11:35:25.268Z,24.83
2019-04-30T11:47:25.461Z,23.20
2019-04-30T11:52:32.626Z,24.00
2019-04-30T11:57:41.056Z,23.38
2019-04-30T12:02:52.598Z,23.38
2019-04-30T12:08:02.413Z,23.03
2019-04-30T12:13:24.330Z,23.99
2019-04-30T12:18:31.573Z,22.53
2019-04-30T12:23:38.612Z,22.37
2019-04-30T12:32:25.688Z,23.94
2019-04-30T12:37:32.670Z,21.43
2019-04-30T12:42:39.779Z,20.87
2019-04-30T12:47:51.881Z,20.87
2019-04-30T12:53:04.258Z,20.42
2019-04-30T12:58:12.266Z,22.45
2019-04-30T13:03:20.598Z,18.91
2019-04-30T13:12:21.770Z,19.78
2019-04-30T13:22:48.854Z,18.15
2019-04-30T13:28:03.054Z,18.15
2019-04-30T13:38:01.539Z,19.00
2019-04-30T13:45:53.667Z,17.99
2019-04-30T13:58:16.373Z,18.42
2019-04-30T14:03:38.961Z,17.91
2019-04-30T14:08:50.579Z,17.36
2019-04-30T14:13:59.679Z,17.31
2019-04-30T14:19:10.957Z,17.31
2019-04-30T14:30:09.365Z,17.85
2019-04-30T14:35:19.364Z,18.39
2019-04-30T14:40:30.376Z,18.27
2019-04-30T14:45:56.670Z,18.46
2019-04-30T14:51:04.730Z,18.46
2019-04-30T14:56:20.334Z,18.54
2019-04-30T15:01:37.431Z,18.52
2019-04-30T15:10:05.367Z,18.80
2019-04-30T15:18:54.841Z,19.27
2019-04-30T15:26:57.678Z,19.56
2019-04-30T15:32:03.632Z,20.20
2019-04-30T15:39:43.320Z,20.25
2019-04-30T15:44:50.612Z,19.64
2019-04-30T15:53:31.844Z,19.59
2019-04-30T15:58:40.316Z,18.88
2019-04-30T16:03:48.422Z,18.88
2019-04-30T16:08:58.863Z,17.97
2019-04-30T16:18:55.252Z,17.81
2019-04-30T16:24:01.417Z,15.50
2019-04-30T16:29:09.817Z,14.87
2019-04-30T16:34:16.573Z,14.17
2019-04-30T16:40:21.445Z,14.11
2019-04-30T16:50:41.668Z,14.44
2019-04-30T16:57:15.572Z,14.85
2019-04-30T17:02:24.476Z,13.03
2019-04-30T17:07:42.254Z,13.03
2019-04-30T17:14:25.853Z,12.80
2019-04-30T17:19:32.728Z,12.80
2019-04-30T17:24:39.781Z,13.09
2019-04-30T17:29:46.583Z,13.08
2019-04-30T17:34:53.655Z,13.69
2019-04-30T17:40:00.604Z,14.41
2019-04-30T17:49:29.701Z,15.32
2019-04-30T17:58:37.505Z,16.36
2019-04-30T18:03:44.698Z,16.36
2019-04-30T18:08:52.314Z,16.70
2019-04-30T18:14:23.931Z,17.55
2019-04-30T18:24:00.853Z,17.97
2019-04-30T18:29:07.603Z,18.42
2019-04-30T18:39:26.374Z,19.43
2019-04-30T18:44:33.563Z,19.78
2019-04-30T18:51:42.632Z,20.02
2019-04-30T18:56:48.985Z,21.02
2019-04-30T19:01:56.465Z,21.90
2019-04-30T19:11:33.209Z,22.19
2019-04-30T19:20:49.585Z,24.63
2019-04-30T19:25:59.565Z,24.63
2019-04-30T19:31:09.226Z,26.32
2019-04-30T19:36:18.331Z,26.88
2019-04-30T19:42:00.914Z,26.68
2019-04-30T19:47:09.315Z,27.84
2019-04-30T19:52:19.003Z,28.56
2019-04-30T19:57:25.460Z,29.33
2019-04-30T20:05:43.660Z,28.31
2019-04-30T20:13:33.087Z,28.62
2019-04-30T20:19:01.657Z,29.82
2019-04-30T20:24:08.581Z,31.50
2019-04-30T20:29:15.600Z,33.44
2019-04-30T20:38:54.270Z,31.49
2019-04-30T20:44:06.641Z,33.89
2019-04-30T20:54:34.249Z,32.21
2019-04-30T20:59:44.264Z,34.82
2019-04-30T21:04:51.481Z,35.54
2019-04-30T21:14:02.314Z,34.08
2019-04-30T21:28:29.757Z,35.34
2019-04-30T21:33:47.732Z,37.08
2019-04-30T21:40:20.022Z,38.89
2019-04-30T21:45:29.166Z,38.89
2019-04-30T21:50:40.611Z,39.64
2019-04-30T21:58:09.799Z,38.16
2019-04-30T22:03:16.770Z,40.41
2019-04-30T22:08:23.723Z,40.96
2019-04-30T22:13:30.669Z,41.52
2019-04-30T22:24:31.276Z,39.57
2019-04-30T22:36:38.828Z,39.50
2019-04-30T22:46:19.742Z,39.50
2019-04-30T22:51:26.647Z,41.41
2019-04-30T23:01:44.307Z,40.41
2019-04-30T23:06:51.636Z,41.83
2019-04-30T23:11:58.585Z,41.97
2019-04-30T23:17:06.254Z,42.02
2019-04-30T23:22:13.448Z,42.02
2019-04-30T23:27:20.449Z,42.09
2019-04-30T23:32:27.649Z,41.92
2019-04-30T23:37:34.573Z,41.66
2019-04-30T23:42:41.601Z,41.46
2019-04-30T23:47:48.584Z,41.61
2019-04-30T23:53:00.291Z,41.66
2019-04-30T23:58:07.567Z,41.63
